Startpagina
METAR-TAF:

METAR-TAF

Vliegvelden :

Tabriz International Airport

Tabriz, Iran

breedte: 38-05N, lengte: 046-17E, hoogte: 1367 m

Actueel weer

Dit bericht is 24 minuten geleden gemaakt, om 00:30 UTC
Wind 14 kt uit het oosten
Temperatuur 25°C
Vochtigheid 34%
Druk 1018 hPa
Zicht 10 km of meer
Verspreide wolken op 3000 ft
Gebroken wolken op 8000 ft

METAR: OITT 210030Z 09014KT 9999 SCT030 BKN080 25/08 Q1018 A3007

Tijdstip: 05:24 (00:54 UTC)

Verwachting

Dit bericht is 1 uur en het 54 minuten geleden gemaakt, om 23:00 UTC
Verwachting geldig van 21 om 00 UTC tot 22 om 06 UTC
Wind 12 kt uit het oostnoordoosten
Zicht: 8000 m
Wijzigt naar
van 21 om 09 UTC tot 21 om 11 UTC
Wind 12 kt uit het westen
Weinig wolken op 4000 ft
Tijdelijke
van 21 om 15 UTC tot 21 om 22 UTC
Wind 14 kt uit het oostnoordoosten met uitschieters tot 24 kt

TAF: OITT 202300Z 2100/2206 07012KT 8000 NSC BECMG 2109/2111 26012KT FEW040 TEMPO 2115/2122 06014G24KT

Waarnemingen en weersverwachtingen van meer dan 4000 vliegvelden (METAR en TAF).

De beschikbare stations zijn de gele en rode punten op de kaart.

Ga met uw muis naar het station om de naam te zien.

Klik dan om waarnemingen en weersverwachtingen te zien.

kaart wijzigen: klik op de groene knoppen met een zwart kruis om in te zoomen, op de groene knop met een streepje om uit te zoomen of op de groene pijlen voor aangrenzende kaarten.


METAR-TAF: